sensor_id;sensor_type;location;lat;lon;timestamp;P1;durP1;ratioP1;P2;durP2;ratioP2
69744;SDS011;57015;50.120;-5.168;2023-05-29T00:01:25;5.40;;;1.77;;
69744;SDS011;57015;50.120;-5.168;2023-05-29T00:03:51;4.93;;;1.92;;
69744;SDS011;57015;50.120;-5.168;2023-05-29T00:06:16;6.30;;;1.90;;
69744;SDS011;57015;50.120;-5.168;2023-05-29T00:08:42;6.10;;;2.08;;
69744;SDS011;57015;50.120;-5.168;2023-05-29T00:11:07;5.83;;;2.00;;
69744;SDS011;57015;50.120;-5.168;2023-05-29T00:13:33;6.57;;;2.30;;
69744;SDS011;57015;50.120;-5.168;2023-05-29T00:15:58;5.80;;;2.20;;
69744;SDS011;57015;50.120;-5.168;2023-05-29T00:18:25;5.40;;;1.85;;
69744;SDS011;57015;50.120;-5.168;2023-05-29T00:20:51;6.33;;;2.03;;
69744;SDS011;57015;50.120;-5.168;2023-05-29T00:23:17;7.75;;;1.92;;
69744;SDS011;57015;50.120;-5.168;2023-05-29T00:25:43;6.00;;;1.73;;
69744;SDS011;57015;50.120;-5.168;2023-05-29T00:28:09;6.80;;;2.20;;
69744;SDS011;57015;50.120;-5.168;2023-05-29T00:30:34;6.40;;;1.90;;
69744;SDS011;57015;50.120;-5.168;2023-05-29T00:33:00;5.10;;;1.90;;
69744;SDS011;57015;50.120;-5.168;2023-05-29T00:35:25;4.93;;;2.30;;
69744;SDS011;57015;50.120;-5.168;2023-05-29T00:37:51;7.30;;;2.00;;
69744;SDS011;57015;50.120;-5.168;2023-05-29T00:40:17;5.60;;;2.40;;
69744;SDS011;57015;50.120;-5.168;2023-05-29T00:42:42;5.90;;;1.97;;
69744;SDS011;57015;50.120;-5.168;2023-05-29T00:45:08;6.40;;;2.00;;
69744;SDS011;57015;50.120;-5.168;2023-05-29T00:47:34;4.00;;;1.80;;
69744;SDS011;57015;50.120;-5.168;2023-05-29T00:49:59;6.27;;;1.87;;
69744;SDS011;57015;50.120;-5.168;2023-05-29T00:52:25;8.82;;;2.55;;
69744;SDS011;57015;50.120;-5.168;2023-05-29T00:54:51;4.93;;;1.50;;
69744;SDS011;57015;50.120;-5.168;2023-05-29T00:57:17;5.78;;;2.25;;
69744;SDS011;57015;50.120;-5.168;2023-05-29T00:59:42;6.53;;;2.27;;
69744;SDS011;57015;50.120;-5.168;2023-05-29T01:02:09;7.70;;;2.20;;
69744;SDS011;57015;50.120;-5.168;2023-05-29T01:04:34;7.35;;;2.15;;
69744;SDS011;57015;50.120;-5.168;2023-05-29T01:07:01;6.67;;;2.00;;
69744;SDS011;57015;50.120;-5.168;2023-05-29T01:09:30;6.38;;;2.10;;
69744;SDS011;57015;50.120;-5.168;2023-05-29T01:14:45;6.60;;;2.20;;
69744;SDS011;57015;50.120;-5.168;2023-05-29T01:28:47;6.18;;;2.05;;
69744;SDS011;57015;50.120;-5.168;2023-05-29T01:31:14;9.00;;;2.10;;
69744;SDS011;57015;50.120;-5.168;2023-05-29T01:33:42;4.68;;;2.00;;
69744;SDS011;57015;50.120;-5.168;2023-05-29T01:36:17;8.35;;;3.10;;
69744;SDS011;57015;50.120;-5.168;2023-05-29T01:38:42;4.73;;;2.10;;
69744;SDS011;57015;50.120;-5.168;2023-05-29T01:41:07;5.83;;;2.17;;
69744;SDS011;57015;50.120;-5.168;2023-05-29T01:43:33;4.93;;;2.20;;
69744;SDS011;57015;50.120;-5.168;2023-05-29T01:45:58;7.25;;;1.90;;
69744;SDS011;57015;50.120;-5.168;2023-05-29T01:48:24;5.33;;;1.67;;
69744;SDS011;57015;50.120;-5.168;2023-05-29T01:50:50;7.00;;;2.35;;
69744;SDS011;57015;50.120;-5.168;2023-05-29T01:53:16;5.93;;;1.90;;
69744;SDS011;57015;50.120;-5.168;2023-05-29T01:55:41;4.87;;;2.13;;
69744;SDS011;57015;50.120;-5.168;2023-05-29T01:58:07;8.13;;;2.60;;
69744;SDS011;57015;50.120;-5.168;2023-05-29T02:00:32;7.40;;;2.40;;
69744;SDS011;57015;50.120;-5.168;2023-05-29T02:02:58;5.47;;;2.20;;
69744;SDS011;57015;50.120;-5.168;2023-05-29T02:05:23;6.20;;;2.17;;
69744;SDS011;57015;50.120;-5.168;2023-05-29T02:07:49;5.72;;;1.92;;
69744;SDS011;57015;50.120;-5.168;2023-05-29T02:10:14;6.40;;;2.13;;
69744;SDS011;57015;50.120;-5.168;2023-05-29T02:12:39;4.60;;;1.97;;
69744;SDS011;57015;50.120;-5.168;2023-05-29T02:15:05;6.67;;;2.10;;
69744;SDS011;57015;50.120;-5.168;2023-05-29T02:17:31;6.50;;;2.45;;
69744;SDS011;57015;50.120;-5.168;2023-05-29T02:19:56;8.47;;;2.40;;
69744;SDS011;57015;50.120;-5.168;2023-05-29T02:22:22;6.87;;;2.40;;
69744;SDS011;57015;50.120;-5.168;2023-05-29T02:24:47;6.63;;;2.20;;
69744;SDS011;57015;50.120;-5.168;2023-05-29T02:27:12;6.28;;;2.00;;
69744;SDS011;57015;50.120;-5.168;2023-05-29T02:29:38;7.13;;;2.70;;
69744;SDS011;57015;50.120;-5.168;2023-05-29T02:32:03;4.87;;;1.83;;
69744;SDS011;57015;50.120;-5.168;2023-05-29T02:34:29;9.82;;;3.15;;
69744;SDS011;57015;50.120;-5.168;2023-05-29T02:36:55;5.43;;;2.07;;
69744;SDS011;57015;50.120;-5.168;2023-05-29T02:39:20;5.40;;;2.10;;
69744;SDS011;57015;50.120;-5.168;2023-05-29T02:41:46;7.50;;;2.60;;
69744;SDS011;57015;50.120;-5.168;2023-05-29T02:44:11;6.00;;;2.15;;
69744;SDS011;57015;50.120;-5.168;2023-05-29T02:46:37;6.68;;;2.10;;
69744;SDS011;57015;50.120;-5.168;2023-05-29T02:49:02;5.37;;;1.67;;
69744;SDS011;57015;50.120;-5.168;2023-05-29T02:51:27;7.20;;;2.53;;
69744;SDS011;57015;50.120;-5.168;2023-05-29T02:53:53;4.97;;;2.33;;
69744;SDS011;57015;50.120;-5.168;2023-05-29T02:56:19;6.43;;;2.47;;
69744;SDS011;57015;50.120;-5.168;2023-05-29T02:58:48;5.93;;;2.22;;
69744;SDS011;57015;50.120;-5.168;2023-05-29T03:01:14;6.63;;;2.30;;
69744;SDS011;57015;50.120;-5.168;2023-05-29T03:03:40;5.70;;;2.20;;
69744;SDS011;57015;50.120;-5.168;2023-05-29T03:06:05;6.37;;;1.77;;
69744;SDS011;57015;50.120;-5.168;2023-05-29T03:08:31;5.93;;;2.13;;
69744;SDS011;57015;50.120;-5.168;2023-05-29T03:10:56;7.07;;;2.45;;
69744;SDS011;57015;50.120;-5.168;2023-05-29T03:13:22;5.97;;;1.90;;
69744;SDS011;57015;50.120;-5.168;2023-05-29T03:15:47;4.73;;;1.90;;
69744;SDS011;57015;50.120;-5.168;2023-05-29T03:18:12;5.73;;;2.10;;
69744;SDS011;57015;50.120;-5.168;2023-05-29T03:20:38;6.47;;;2.67;;
69744;SDS011;57015;50.120;-5.168;2023-05-29T03:23:03;8.50;;;2.88;;
69744;SDS011;57015;50.120;-5.168;2023-05-29T03:25:29;5.18;;;2.05;;
69744;SDS011;57015;50.120;-5.168;2023-05-29T03:27:54;7.87;;;1.90;;
69744;SDS011;57015;50.120;-5.168;2023-05-29T03:30:20;5.40;;;1.83;;
69744;SDS011;57015;50.120;-5.168;2023-05-29T03:32:46;6.70;;;2.60;;
69744;SDS011;57015;50.120;-5.168;2023-05-29T03:35:11;6.47;;;2.30;;
69744;SDS011;57015;50.120;-5.168;2023-05-29T03:37:36;6.60;;;2.87;;
69744;SDS011;57015;50.120;-5.168;2023-05-29T03:40:02;7.07;;;2.57;;
69744;SDS011;57015;50.120;-5.168;2023-05-29T03:42:29;7.57;;;3.47;;
69744;SDS011;57015;50.120;-5.168;2023-05-29T03:44:56;4.70;;;2.20;;
69744;SDS011;57015;50.120;-5.168;2023-05-29T03:47:21;7.47;;;2.87;;
69744;SDS011;57015;50.120;-5.168;2023-05-29T03:49:47;5.90;;;2.10;;
69744;SDS011;57015;50.120;-5.168;2023-05-29T03:52:12;5.37;;;1.83;;
69744;SDS011;57015;50.120;-5.168;2023-05-29T03:54:38;5.87;;;2.20;;
69744;SDS011;57015;50.120;-5.168;2023-05-29T03:57:03;5.80;;;2.20;;
69744;SDS011;57015;50.120;-5.168;2023-05-29T03:59:28;7.72;;;2.30;;
69744;SDS011;57015;50.120;-5.168;2023-05-29T04:01:54;5.05;;;2.28;;
69744;SDS011;57015;50.120;-5.168;2023-05-29T04:04:19;9.03;;;2.97;;
69744;SDS011;57015;50.120;-5.168;2023-05-29T04:06:45;10.53;;;3.23;;
69744;SDS011;57015;50.120;-5.168;2023-05-29T04:09:10;6.57;;;2.93;;
69744;SDS011;57015;50.120;-5.168;2023-05-29T04:11:36;8.02;;;3.20;;
69744;SDS011;57015;50.120;-5.168;2023-05-29T04:14:01;6.97;;;3.10;;
69744;SDS011;57015;50.120;-5.168;2023-05-29T04:16:27;8.43;;;2.88;;
69744;SDS011;57015;50.120;-5.168;2023-05-29T04:18:54;8.27;;;3.33;;
69744;SDS011;57015;50.120;-5.168;2023-05-29T04:21:20;8.80;;;3.20;;
69744;SDS011;57015;50.120;-5.168;2023-05-29T04:23:45;8.88;;;3.40;;
69744;SDS011;57015;50.120;-5.168;2023-05-29T04:26:11;9.13;;;3.57;;
69744;SDS011;57015;50.120;-5.168;2023-05-29T04:28:37;8.23;;;3.60;;
69744;SDS011;57015;50.120;-5.168;2023-05-29T04:31:03;9.03;;;3.33;;
69744;SDS011;57015;50.120;-5.168;2023-05-29T04:33:30;7.80;;;3.15;;
69744;SDS011;57015;50.120;-5.168;2023-05-29T04:35:55;6.27;;;3.00;;
69744;SDS011;57015;50.120;-5.168;2023-05-29T04:38:20;13.32;;;3.65;;
69744;SDS011;57015;50.120;-5.168;2023-05-29T04:40:50;7.87;;;3.40;;
69744;SDS011;57015;50.120;-5.168;2023-05-29T04:43:16;8.63;;;3.53;;
69744;SDS011;57015;50.120;-5.168;2023-05-29T04:45:41;8.97;;;3.73;;
69744;SDS011;57015;50.120;-5.168;2023-05-29T04:48:07;7.70;;;3.55;;
69744;SDS011;57015;50.120;-5.168;2023-05-29T04:50:33;11.23;;;3.78;;
69744;SDS011;57015;50.120;-5.168;2023-05-29T04:52:59;13.73;;;4.03;;
69744;SDS011;57015;50.120;-5.168;2023-05-29T04:55:25;11.57;;;3.73;;
69744;SDS011;57015;50.120;-5.168;2023-05-29T04:57:50;10.13;;;4.10;;
69744;SDS011;57015;50.120;-5.168;2023-05-29T05:00:16;10.38;;;3.92;;
69744;SDS011;57015;50.120;-5.168;2023-05-29T05:02:43;14.13;;;3.92;;
69744;SDS011;57015;50.120;-5.168;2023-05-29T05:05:09;12.15;;;3.60;;
69744;SDS011;57015;50.120;-5.168;2023-05-29T05:07:34;8.43;;;3.37;;
69744;SDS011;57015;50.120;-5.168;2023-05-29T05:10:01;11.63;;;3.88;;
69744;SDS011;57015;50.120;-5.168;2023-05-29T05:12:27;7.03;;;3.30;;
69744;SDS011;57015;50.120;-5.168;2023-05-29T05:14:52;10.13;;;3.43;;
69744;SDS011;57015;50.120;-5.168;2023-05-29T05:17:17;10.70;;;3.37;;
69744;SDS011;57015;50.120;-5.168;2023-05-29T05:19:43;11.80;;;3.70;;
69744;SDS011;57015;50.120;-5.168;2023-05-29T05:22:08;12.53;;;3.77;;
69744;SDS011;57015;50.120;-5.168;2023-05-29T05:24:34;9.10;;;3.67;;
69744;SDS011;57015;50.120;-5.168;2023-05-29T05:27:00;8.27;;;3.10;;
69744;SDS011;57015;50.120;-5.168;2023-05-29T05:29:25;7.00;;;2.87;;
69744;SDS011;57015;50.120;-5.168;2023-05-29T05:31:50;7.28;;;2.90;;
69744;SDS011;57015;50.120;-5.168;2023-05-29T05:34:16;11.32;;;3.88;;
69744;SDS011;57015;50.120;-5.168;2023-05-29T05:36:41;9.40;;;3.43;;
69744;SDS011;57015;50.120;-5.168;2023-05-29T05:39:07;10.23;;;3.60;;
69744;SDS011;57015;50.120;-5.168;2023-05-29T05:41:32;10.73;;;3.53;;
69744;SDS011;57015;50.120;-5.168;2023-05-29T05:43:57;9.57;;;2.63;;
69744;SDS011;57015;50.120;-5.168;2023-05-29T05:46:23;6.43;;;2.80;;
69744;SDS011;57015;50.120;-5.168;2023-05-29T05:48:48;9.10;;;3.03;;
69744;SDS011;57015;50.120;-5.168;2023-05-29T05:51:14;8.57;;;3.63;;
69744;SDS011;57015;50.120;-5.168;2023-05-29T05:53:39;7.67;;;2.80;;
69744;SDS011;57015;50.120;-5.168;2023-05-29T05:56:05;10.77;;;3.53;;
69744;SDS011;57015;50.120;-5.168;2023-05-29T05:58:30;8.88;;;3.17;;
69744;SDS011;57015;50.120;-5.168;2023-05-29T06:00:56;7.73;;;3.03;;
69744;SDS011;57015;50.120;-5.168;2023-05-29T06:03:22;8.75;;;2.90;;
69744;SDS011;57015;50.120;-5.168;2023-05-29T06:05:47;8.47;;;3.20;;
69744;SDS011;57015;50.120;-5.168;2023-05-29T06:08:13;6.17;;;2.63;;
69744;SDS011;57015;50.120;-5.168;2023-05-29T06:10:40;7.28;;;2.30;;
69744;SDS011;57015;50.120;-5.168;2023-05-29T06:13:05;7.40;;;2.80;;
69744;SDS011;57015;50.120;-5.168;2023-05-29T06:15:30;5.97;;;2.90;;
69744;SDS011;57015;50.120;-5.168;2023-05-29T06:17:56;9.40;;;3.40;;
69744;SDS011;57015;50.120;-5.168;2023-05-29T06:20:21;9.87;;;2.50;;
69744;SDS011;57015;50.120;-5.168;2023-05-29T06:22:48;7.10;;;2.33;;
69744;SDS011;57015;50.120;-5.168;2023-05-29T06:25:16;7.20;;;2.22;;
69744;SDS011;57015;50.120;-5.168;2023-05-29T06:27:43;12.80;;;2.17;;
69744;SDS011;57015;50.120;-5.168;2023-05-29T06:30:09;6.37;;;2.10;;
69744;SDS011;57015;50.120;-5.168;2023-05-29T06:32:35;7.70;;;2.67;;
69744;SDS011;57015;50.120;-5.168;2023-05-29T06:35:01;8.20;;;2.50;;
69744;SDS011;57015;50.120;-5.168;2023-05-29T06:37:26;7.78;;;2.10;;
69744;SDS011;57015;50.120;-5.168;2023-05-29T06:39:51;8.53;;;2.33;;
69744;SDS011;57015;50.120;-5.168;2023-05-29T06:42:17;9.60;;;2.27;;
69744;SDS011;57015;50.120;-5.168;2023-05-29T06:44:42;4.80;;;1.60;;
69744;SDS011;57015;50.120;-5.168;2023-05-29T06:47:08;6.47;;;2.43;;
69744;SDS011;57015;50.120;-5.168;2023-05-29T06:49:33;7.37;;;2.27;;
69744;SDS011;57015;50.120;-5.168;2023-05-29T06:51:58;6.70;;;1.88;;
69744;SDS011;57015;50.120;-5.168;2023-05-29T06:54:25;6.72;;;2.03;;
69744;SDS011;57015;50.120;-5.168;2023-05-29T06:56:50;8.97;;;1.97;;
69744;SDS011;57015;50.120;-5.168;2023-05-29T06:59:15;7.32;;;2.13;;
69744;SDS011;57015;50.120;-5.168;2023-05-29T07:01:41;6.53;;;2.00;;
69744;SDS011;57015;50.120;-5.168;2023-05-29T07:04:06;4.90;;;1.70;;
69744;SDS011;57015;50.120;-5.168;2023-05-29T07:06:32;5.30;;;2.03;;
69744;SDS011;57015;50.120;-5.168;2023-05-29T07:08:58;8.70;;;1.83;;
69744;SDS011;57015;50.120;-5.168;2023-05-29T07:11:24;7.20;;;1.70;;
69744;SDS011;57015;50.120;-5.168;2023-05-29T07:13:51;4.70;;;1.53;;
69744;SDS011;57015;50.120;-5.168;2023-05-29T07:16:17;7.90;;;2.00;;
69744;SDS011;57015;50.120;-5.168;2023-05-29T07:18:43;6.43;;;1.90;;
69744;SDS011;57015;50.120;-5.168;2023-05-29T07:21:09;8.70;;;2.20;;
69744;SDS011;57015;50.120;-5.168;2023-05-29T07:23:35;5.68;;;1.65;;
69744;SDS011;57015;50.120;-5.168;2023-05-29T07:26:00;6.00;;;1.63;;
69744;SDS011;57015;50.120;-5.168;2023-05-29T07:28:26;7.87;;;1.90;;
69744;SDS011;57015;50.120;-5.168;2023-05-29T07:30:51;10.13;;;1.53;;
69744;SDS011;57015;50.120;-5.168;2023-05-29T07:33:16;5.93;;;1.50;;
69744;SDS011;57015;50.120;-5.168;2023-05-29T07:35:42;5.40;;;1.90;;
69744;SDS011;57015;50.120;-5.168;2023-05-29T07:38:07;5.20;;;1.40;;
69744;SDS011;57015;50.120;-5.168;2023-05-29T07:40:32;6.77;;;1.40;;
69744;SDS011;57015;50.120;-5.168;2023-05-29T07:42:58;4.57;;;1.67;;
69744;SDS011;57015;50.120;-5.168;2023-05-29T07:45:23;5.67;;;1.50;;
69744;SDS011;57015;50.120;-5.168;2023-05-29T07:47:49;5.93;;;1.57;;
69744;SDS011;57015;50.120;-5.168;2023-05-29T07:50:14;5.27;;;1.40;;
69744;SDS011;57015;50.120;-5.168;2023-05-29T07:52:40;4.78;;;1.20;;
69744;SDS011;57015;50.120;-5.168;2023-05-29T07:55:07;6.43;;;1.40;;
69744;SDS011;57015;50.120;-5.168;2023-05-29T07:57:33;7.50;;;1.53;;
69744;SDS011;57015;50.120;-5.168;2023-05-29T07:59:58;6.90;;;1.50;;
69744;SDS011;57015;50.120;-5.168;2023-05-29T08:02:23;7.43;;;1.33;;
69744;SDS011;57015;50.120;-5.168;2023-05-29T08:04:49;5.90;;;1.50;;
69744;SDS011;57015;50.120;-5.168;2023-05-29T08:07:15;5.85;;;1.40;;
69744;SDS011;57015;50.120;-5.168;2023-05-29T08:09:40;4.40;;;1.38;;
69744;SDS011;57015;50.120;-5.168;2023-05-29T08:12:06;7.72;;;1.50;;
69744;SDS011;57015;50.120;-5.168;2023-05-29T08:14:31;6.63;;;1.20;;
69744;SDS011;57015;50.120;-5.168;2023-05-29T08:16:57;8.63;;;1.60;;
69744;SDS011;57015;50.120;-5.168;2023-05-29T08:19:23;5.77;;;1.50;;
69744;SDS011;57015;50.120;-5.168;2023-05-29T08:21:48;5.57;;;1.65;;
69744;SDS011;57015;50.120;-5.168;2023-05-29T08:24:13;10.37;;;1.30;;
69744;SDS011;57015;50.120;-5.168;2023-05-29T08:26:39;6.13;;;1.23;;
69744;SDS011;57015;50.120;-5.168;2023-05-29T08:29:04;8.50;;;1.50;;
69744;SDS011;57015;50.120;-5.168;2023-05-29T08:31:30;4.63;;;1.03;;
69744;SDS011;57015;50.120;-5.168;2023-05-29T08:33:56;8.23;;;1.45;;
69744;SDS011;57015;50.120;-5.168;2023-05-29T08:36:21;6.90;;;1.13;;
69744;SDS011;57015;50.120;-5.168;2023-05-29T08:38:50;5.97;;;1.00;;
69744;SDS011;57015;50.120;-5.168;2023-05-29T08:41:17;9.25;;;1.38;;
69744;SDS011;57015;50.120;-5.168;2023-05-29T08:43:47;8.73;;;1.88;;
69744;SDS011;57015;50.120;-5.168;2023-05-29T08:46:13;9.00;;;1.33;;
69744;SDS011;57015;50.120;-5.168;2023-05-29T08:48:40;5.47;;;1.27;;
69744;SDS011;57015;50.120;-5.168;2023-05-29T08:51:08;5.68;;;1.30;;
69744;SDS011;57015;50.120;-5.168;2023-05-29T08:53:34;9.30;;;1.70;;
69744;SDS011;57015;50.120;-5.168;2023-05-29T08:56:00;4.93;;;1.42;;
69744;SDS011;57015;50.120;-5.168;2023-05-29T08:58:26;6.53;;;1.30;;
69744;SDS011;57015;50.120;-5.168;2023-05-29T09:00:52;5.90;;;1.27;;
69744;SDS011;57015;50.120;-5.168;2023-05-29T09:03:17;8.73;;;1.23;;
69744;SDS011;57015;50.120;-5.168;2023-05-29T09:05:43;6.13;;;1.20;;
69744;SDS011;57015;50.120;-5.168;2023-05-29T09:08:11;6.22;;;1.25;;
69744;SDS011;57015;50.120;-5.168;2023-05-29T09:10:38;6.47;;;1.13;;
69744;SDS011;57015;50.120;-5.168;2023-05-29T09:13:05;4.32;;;1.70;;
69744;SDS011;57015;50.120;-5.168;2023-05-29T09:15:31;6.20;;;1.50;;
69744;SDS011;57015;50.120;-5.168;2023-05-29T09:17:56;6.63;;;1.60;;
69744;SDS011;57015;50.120;-5.168;2023-05-29T09:20:23;5.50;;;1.33;;
69744;SDS011;57015;50.120;-5.168;2023-05-29T09:23:08;5.53;;;1.45;;
69744;SDS011;57015;50.120;-5.168;2023-05-29T09:25:35;9.63;;;1.50;;
69744;SDS011;57015;50.120;-5.168;2023-05-29T09:28:05;4.40;;;1.30;;
69744;SDS011;57015;50.120;-5.168;2023-05-29T09:30:34;5.40;;;1.48;;
69744;SDS011;57015;50.120;-5.168;2023-05-29T09:33:01;6.10;;;1.37;;
69744;SDS011;57015;50.120;-5.168;2023-05-29T09:35:32;6.85;;;1.23;;
69744;SDS011;57015;50.120;-5.168;2023-05-29T09:38:01;5.18;;;0.98;;
69744;SDS011;57015;50.120;-5.168;2023-05-29T09:40:30;5.88;;;1.52;;
69744;SDS011;57015;50.120;-5.168;2023-05-29T09:43:01;7.13;;;1.20;;
69744;SDS011;57015;50.120;-5.168;2023-05-29T09:45:30;6.20;;;1.60;;
69744;SDS011;57015;50.120;-5.168;2023-05-29T09:47:56;6.15;;;1.10;;
69744;SDS011;57015;50.120;-5.168;2023-05-29T09:50:25;8.47;;;1.30;;
69744;SDS011;57015;50.120;-5.168;2023-05-29T09:52:51;11.43;;;1.50;;
69744;SDS011;57015;50.120;-5.168;2023-05-29T09:55:21;7.03;;;1.50;;
69744;SDS011;57015;50.120;-5.168;2023-05-29T09:57:48;7.22;;;1.63;;
69744;SDS011;57015;50.120;-5.168;2023-05-29T10:00:15;9.07;;;1.67;;
69744;SDS011;57015;50.120;-5.168;2023-05-29T10:02:41;4.60;;;1.67;;
69744;SDS011;57015;50.120;-5.168;2023-05-29T10:05:06;5.33;;;1.10;;
69744;SDS011;57015;50.120;-5.168;2023-05-29T10:07:36;6.90;;;1.90;;
69744;SDS011;57015;50.120;-5.168;2023-05-29T10:10:03;9.02;;;1.70;;
69744;SDS011;57015;50.120;-5.168;2023-05-29T10:12:41;6.50;;;1.83;;
69744;SDS011;57015;50.120;-5.168;2023-05-29T10:15:12;6.90;;;1.57;;
69744;SDS011;57015;50.120;-5.168;2023-05-29T10:17:39;6.03;;;1.50;;
69744;SDS011;57015;50.120;-5.168;2023-05-29T10:20:10;9.45;;;1.92;;
69744;SDS011;57015;50.120;-5.168;2023-05-29T10:22:40;6.15;;;1.40;;
69744;SDS011;57015;50.120;-5.168;2023-05-29T10:25:11;5.47;;;1.50;;
69744;SDS011;57015;50.120;-5.168;2023-05-29T10:27:38;7.50;;;1.50;;
69744;SDS011;57015;50.120;-5.168;2023-05-29T10:38:28;11.90;;;1.98;;
69744;SDS011;57015;50.120;-5.168;2023-05-29T10:40:54;8.37;;;1.50;;
69744;SDS011;57015;50.120;-5.168;2023-05-29T10:43:32;8.93;;;2.10;;
69744;SDS011;57015;50.120;-5.168;2023-05-29T10:45:58;8.07;;;1.33;;
69744;SDS011;57015;50.120;-5.168;2023-05-29T10:50:55;7.15;;;1.40;;
69744;SDS011;57015;50.120;-5.168;2023-05-29T10:53:25;7.80;;;1.73;;
69744;SDS011;57015;50.120;-5.168;2023-05-29T10:55:52;5.60;;;1.60;;
69744;SDS011;57015;50.120;-5.168;2023-05-29T10:58:18;5.57;;;1.42;;
69744;SDS011;57015;50.120;-5.168;2023-05-29T11:00:45;6.40;;;1.33;;
69744;SDS011;57015;50.120;-5.168;2023-05-29T11:03:12;6.22;;;1.90;;
69744;SDS011;57015;50.120;-5.168;2023-05-29T11:05:59;5.23;;;1.17;;
69744;SDS011;57015;50.120;-5.168;2023-05-29T11:08:41;6.10;;;1.65;;
69744;SDS011;57015;50.120;-5.168;2023-05-29T11:11:15;8.82;;;1.63;;
69744;SDS011;57015;50.120;-5.168;2023-05-29T11:13:41;8.38;;;1.60;;
69744;SDS011;57015;50.120;-5.168;2023-05-29T11:19:07;5.30;;;1.23;;
69744;SDS011;57015;50.120;-5.168;2023-05-29T11:21:52;10.27;;;1.90;;
69744;SDS011;57015;50.120;-5.168;2023-05-29T11:24:25;5.55;;;1.48;;
69744;SDS011;57015;50.120;-5.168;2023-05-29T11:26:51;7.25;;;1.30;;
69744;SDS011;57015;50.120;-5.168;2023-05-29T11:29:22;6.82;;;1.45;;
69744;SDS011;57015;50.120;-5.168;2023-05-29T11:31:49;7.13;;;1.53;;
69744;SDS011;57015;50.120;-5.168;2023-05-29T11:34:23;9.10;;;1.40;;
69744;SDS011;57015;50.120;-5.168;2023-05-29T11:36:51;7.35;;;1.63;;
69744;SDS011;57015;50.120;-5.168;2023-05-29T11:39:16;6.45;;;1.45;;
69744;SDS011;57015;50.120;-5.168;2023-05-29T11:41:42;8.60;;;1.90;;
69744;SDS011;57015;50.120;-5.168;2023-05-29T11:44:07;6.10;;;1.70;;
69744;SDS011;57015;50.120;-5.168;2023-05-29T11:46:33;8.90;;;1.85;;
69744;SDS011;57015;50.120;-5.168;2023-05-29T11:48:59;8.00;;;1.73;;
69744;SDS011;57015;50.120;-5.168;2023-05-29T11:51:25;6.35;;;1.77;;
69744;SDS011;57015;50.120;-5.168;2023-05-29T11:53:51;6.57;;;1.80;;
69744;SDS011;57015;50.120;-5.168;2023-05-29T11:56:22;5.80;;;1.30;;
69744;SDS011;57015;50.120;-5.168;2023-05-29T11:58:51;6.88;;;1.40;;
69744;SDS011;57015;50.120;-5.168;2023-05-29T12:01:21;5.93;;;1.35;;
69744;SDS011;57015;50.120;-5.168;2023-05-29T12:03:48;9.77;;;1.42;;
69744;SDS011;57015;50.120;-5.168;2023-05-29T12:06:14;6.20;;;1.60;;
69744;SDS011;57015;50.120;-5.168;2023-05-29T12:08:40;6.53;;;1.80;;
69744;SDS011;57015;50.120;-5.168;2023-05-29T12:11:06;7.13;;;1.75;;
69744;SDS011;57015;50.120;-5.168;2023-05-29T12:13:31;6.90;;;1.80;;
69744;SDS011;57015;50.120;-5.168;2023-05-29T12:15:58;7.03;;;1.77;;
69744;SDS011;57015;50.120;-5.168;2023-05-29T12:18:28;12.60;;;1.67;;
69744;SDS011;57015;50.120;-5.168;2023-05-29T12:21:00;7.30;;;1.50;;
69744;SDS011;57015;50.120;-5.168;2023-05-29T12:23:27;10.07;;;1.75;;
69744;SDS011;57015;50.120;-5.168;2023-05-29T12:25:53;8.95;;;1.77;;
69744;SDS011;57015;50.120;-5.168;2023-05-29T12:28:19;9.27;;;1.73;;
69744;SDS011;57015;50.120;-5.168;2023-05-29T12:30:46;6.40;;;1.35;;
69744;SDS011;57015;50.120;-5.168;2023-05-29T12:33:33;10.40;;;1.77;;
69744;SDS011;57015;50.120;-5.168;2023-05-29T12:38:27;5.80;;;1.30;;
69744;SDS011;57015;50.120;-5.168;2023-05-29T12:40:53;11.40;;;1.70;;
69744;SDS011;57015;50.120;-5.168;2023-05-29T12:43:19;8.95;;;1.77;;
69744;SDS011;57015;50.120;-5.168;2023-05-29T12:45:44;9.63;;;1.60;;
69744;SDS011;57015;50.120;-5.168;2023-05-29T12:48:10;7.85;;;1.70;;
69744;SDS011;57015;50.120;-5.168;2023-05-29T12:50:39;5.77;;;1.20;;
69744;SDS011;57015;50.120;-5.168;2023-05-29T12:53:12;7.13;;;1.20;;
69744;SDS011;57015;50.120;-5.168;2023-05-29T12:55:40;8.68;;;1.55;;
69744;SDS011;57015;50.120;-5.168;2023-05-29T12:58:09;7.10;;;1.10;;
69744;SDS011;57015;50.120;-5.168;2023-05-29T13:00:36;6.85;;;1.40;;
69744;SDS011;57015;50.120;-5.168;2023-05-29T13:03:03;7.17;;;1.60;;
69744;SDS011;57015;50.120;-5.168;2023-05-29T13:05:29;7.57;;;1.80;;
69744;SDS011;57015;50.120;-5.168;2023-05-29T13:07:55;7.28;;;1.63;;
69744;SDS011;57015;50.120;-5.168;2023-05-29T13:10:21;4.30;;;0.90;;
69744;SDS011;57015;50.120;-5.168;2023-05-29T13:12:48;5.85;;;1.10;;
69744;SDS011;57015;50.120;-5.168;2023-05-29T13:15:18;5.27;;;1.13;;
69744;SDS011;57015;50.120;-5.168;2023-05-29T13:17:44;5.78;;;1.42;;
69744;SDS011;57015;50.120;-5.168;2023-05-29T13:20:10;5.70;;;1.10;;
69744;SDS011;57015;50.120;-5.168;2023-05-29T13:22:36;8.13;;;1.20;;
69744;SDS011;57015;50.120;-5.168;2023-05-29T13:25:06;6.80;;;1.50;;
69744;SDS011;57015;50.120;-5.168;2023-05-29T13:27:33;10.23;;;1.40;;
69744;SDS011;57015;50.120;-5.168;2023-05-29T13:30:00;6.53;;;1.17;;
69744;SDS011;57015;50.120;-5.168;2023-05-29T13:32:25;5.45;;;1.55;;
69744;SDS011;57015;50.120;-5.168;2023-05-29T13:34:51;9.87;;;1.30;;
69744;SDS011;57015;50.120;-5.168;2023-05-29T13:37:16;10.00;;;1.93;;
69744;SDS011;57015;50.120;-5.168;2023-05-29T13:39:41;4.77;;;1.40;;
69744;SDS011;57015;50.120;-5.168;2023-05-29T13:42:07;6.20;;;1.90;;
69744;SDS011;57015;50.120;-5.168;2023-05-29T13:44:33;9.60;;;2.08;;
69744;SDS011;57015;50.120;-5.168;2023-05-29T13:46:58;7.90;;;1.83;;
69744;SDS011;57015;50.120;-5.168;2023-05-29T13:49:25;7.13;;;1.73;;
69744;SDS011;57015;50.120;-5.168;2023-05-29T13:51:51;8.32;;;1.40;;
69744;SDS011;57015;50.120;-5.168;2023-05-29T13:54:16;7.87;;;1.50;;
69744;SDS011;57015;50.120;-5.168;2023-05-29T13:56:44;8.30;;;1.60;;
69744;SDS011;57015;50.120;-5.168;2023-05-29T13:59:10;7.33;;;1.23;;
69744;SDS011;57015;50.120;-5.168;2023-05-29T14:01:35;6.27;;;1.60;;
69744;SDS011;57015;50.120;-5.168;2023-05-29T14:04:01;3.95;;;1.30;;
69744;SDS011;57015;50.120;-5.168;2023-05-29T14:06:26;6.10;;;1.30;;
69744;SDS011;57015;50.120;-5.168;2023-05-29T14:08:52;6.83;;;1.47;;
69744;SDS011;57015;50.120;-5.168;2023-05-29T14:11:18;5.70;;;1.40;;
69744;SDS011;57015;50.120;-5.168;2023-05-29T14:13:43;8.37;;;1.53;;
69744;SDS011;57015;50.120;-5.168;2023-05-29T14:16:08;8.73;;;1.73;;
69744;SDS011;57015;50.120;-5.168;2023-05-29T14:18:34;9.10;;;1.40;;
69744;SDS011;57015;50.120;-5.168;2023-05-29T14:20:59;6.17;;;1.27;;
69744;SDS011;57015;50.120;-5.168;2023-05-29T14:23:25;7.67;;;1.97;;
69744;SDS011;57015;50.120;-5.168;2023-05-29T14:25:50;8.20;;;1.40;;
69744;SDS011;57015;50.120;-5.168;2023-05-29T14:28:18;4.85;;;1.42;;
69744;SDS011;57015;50.120;-5.168;2023-05-29T14:30:44;5.73;;;1.20;;
69744;SDS011;57015;50.120;-5.168;2023-05-29T14:33:09;9.20;;;1.97;;
69744;SDS011;57015;50.120;-5.168;2023-05-29T14:35:37;9.05;;;2.05;;
69744;SDS011;57015;50.120;-5.168;2023-05-29T14:38:03;8.27;;;1.50;;
69744;SDS011;57015;50.120;-5.168;2023-05-29T14:40:28;5.60;;;1.37;;
69744;SDS011;57015;50.120;-5.168;2023-05-29T14:42:56;14.38;;;1.95;;
69744;SDS011;57015;50.120;-5.168;2023-05-29T14:45:21;6.43;;;1.47;;
69744;SDS011;57015;50.120;-5.168;2023-05-29T14:47:46;10.33;;;1.80;;
69744;SDS011;57015;50.120;-5.168;2023-05-29T14:50:12;8.18;;;1.60;;
69744;SDS011;57015;50.120;-5.168;2023-05-29T14:52:37;11.93;;;1.50;;
69744;SDS011;57015;50.120;-5.168;2023-05-29T14:55:05;8.93;;;1.47;;
69744;SDS011;57015;50.120;-5.168;2023-05-29T14:57:32;7.40;;;1.25;;
69744;SDS011;57015;50.120;-5.168;2023-05-29T14:59:59;7.27;;;1.60;;